Airfield :
LOGIN :

Register | Disclaimer

   EN    FR    IT 

 










Legend :    VFR   Marginal VFR   IFR   Intensive IFR   Very Intensive IFR
Visi :
Ceiling :
>= 8 km
>= 3000ft
5 to 8 km
1000 to 3000 ft
1500m to 5 km
500 to 1000 ft
800 to 1500m
200 to 500 ft
< 800m
< 200 ft
Symbols :   Thunderstorms  Fog  Heavy snow  Heavy precipitations  Wind > 20 kt
SIGMETs :     Misc.  Thunderstorms  Icing  Turbulence  Mountain Waves  Volcanic Ashes






- Airport Elevation : 156 ft
- IATA code : MLN


GEML - Melilla

CURRENT METAR :
  • 231530Z 05006KT 010V100 9999 FEW015 21/14 Q1013

EXPIRED METARs :
  • 231500Z 08005KT 010V170 9999 FEW012 21/15 Q1014
  • 231430Z 08004KT 9999 FEW006 SCT013 21/16 Q1014
  • 231400Z 08005KT 9999 FEW008 SCT015 21/15 Q1014
  • 231330Z 08004KT 030V140 9999 FEW025 21/14 Q1015
  • 231300Z 09003KT 020V140 9999 FEW025 20/14 Q1015
  • 231230Z 11008KT 060V160 9999 FEW025 20/15 Q1014
  • 231200Z 08006KT 040V130 9999 FEW025 24/09 Q1015
  • 231130Z 08004KT 030V130 9999 FEW025 23/09 Q1015
  • 231100Z 05005KT 010V120 9999 FEW025 22/10 Q1015
  • 231030Z 01003KT 9999 FEW025 23/10 Q1015

TAF TAF GEML
Valid from the 23 at 12:00 until the 24 at 12:00 UTC


231100Z 2312/2412 06007KT 9999 FEW025 TX24/2314Z TN18/2406Z
PROB30
TEMPO 2321/2406 4000 BR BKN008



MET'MAP, your aeronautical weather chart ! - Copyright ORBIFLY December 2007 - Disclaimer

ORBIFLY MET'MAP TEAM :

Programming & Development : Alexandra Zaïnal
Original concept : Baudouin d'Aumeries
Technical & hardware support : Manuel Goepfert
Assistance : Marc-Olivier Méhu




SOURCES & CREDITS :

   NOAA